sensor_id;sensor_type;location;lat;lon;timestamp;temperature;humidity
17992;DHT22;9121;50.926;5.340;2023-06-26T00:00:05;26.00;98.20
17992;DHT22;9121;50.926;5.340;2023-06-26T00:02:33;25.90;98.50
17992;DHT22;9121;50.926;5.340;2023-06-26T00:05:00;25.90;98.60
17992;DHT22;9121;50.926;5.340;2023-06-26T00:07:28;25.80;99.00
17992;DHT22;9121;50.926;5.340;2023-06-26T00:09:56;25.70;99.20
17992;DHT22;9121;50.926;5.340;2023-06-26T00:12:24;25.60;99.40
17992;DHT22;9121;50.926;5.340;2023-06-26T00:14:52;25.70;99.50
17992;DHT22;9121;50.926;5.340;2023-06-26T00:17:20;25.60;99.50
17992;DHT22;9121;50.926;5.340;2023-06-26T00:19:47;25.60;99.50
17992;DHT22;9121;50.926;5.340;2023-06-26T00:22:14;25.50;99.30
17992;DHT22;9121;50.926;5.340;2023-06-26T00:24:41;25.50;99.40
17992;DHT22;9121;50.926;5.340;2023-06-26T00:27:10;25.50;99.40
17992;DHT22;9121;50.926;5.340;2023-06-26T00:29:37;25.50;99.40
17992;DHT22;9121;50.926;5.340;2023-06-26T00:32:06;25.50;99.50
17992;DHT22;9121;50.926;5.340;2023-06-26T00:34:34;25.40;99.70
17992;DHT22;9121;50.926;5.340;2023-06-26T00:37:01;25.30;99.90
17992;DHT22;9121;50.926;5.340;2023-06-26T00:39:29;25.30;99.90
17992;DHT22;9121;50.926;5.340;2023-06-26T00:41:56;25.40;99.90
17992;DHT22;9121;50.926;5.340;2023-06-26T00:44:23;25.30;99.90
17992;DHT22;9121;50.926;5.340;2023-06-26T00:46:50;25.30;99.90
17992;DHT22;9121;50.926;5.340;2023-06-26T00:49:19;25.20;99.90
17992;DHT22;9121;50.926;5.340;2023-06-26T00:51:46;25.20;99.90
17992;DHT22;9121;50.926;5.340;2023-06-26T00:54:13;25.20;99.90
17992;DHT22;9121;50.926;5.340;2023-06-26T00:56:45;25.10;99.90
17992;DHT22;9121;50.926;5.340;2023-06-26T00:59:13;25.10;99.90
17992;DHT22;9121;50.926;5.340;2023-06-26T01:01:40;24.90;99.90
17992;DHT22;9121;50.926;5.340;2023-06-26T01:04:07;25.00;99.90
17992;DHT22;9121;50.926;5.340;2023-06-26T01:06:46;25.00;99.90
17992;DHT22;9121;50.926;5.340;2023-06-26T01:09:16;24.90;99.90
17992;DHT22;9121;50.926;5.340;2023-06-26T01:11:44;24.80;99.90
17992;DHT22;9121;50.926;5.340;2023-06-26T01:14:11;24.80;99.90
17992;DHT22;9121;50.926;5.340;2023-06-26T01:16:39;24.80;99.90
17992;DHT22;9121;50.926;5.340;2023-06-26T01:19:10;24.80;99.90
17992;DHT22;9121;50.926;5.340;2023-06-26T01:21:43;24.60;99.90
17992;DHT22;9121;50.926;5.340;2023-06-26T01:24:17;24.60;99.90
17992;DHT22;9121;50.926;5.340;2023-06-26T01:26:49;24.50;99.90
17992;DHT22;9121;50.926;5.340;2023-06-26T01:29:18;24.50;99.90
17992;DHT22;9121;50.926;5.340;2023-06-26T01:31:47;24.50;99.90
17992;DHT22;9121;50.926;5.340;2023-06-26T01:34:15;24.60;99.90
17992;DHT22;9121;50.926;5.340;2023-06-26T01:36:44;24.60;99.90
17992;DHT22;9121;50.926;5.340;2023-06-26T01:39:14;24.60;99.90
17992;DHT22;9121;50.926;5.340;2023-06-26T01:41:42;24.50;99.90
17992;DHT22;9121;50.926;5.340;2023-06-26T01:44:23;24.50;99.90
17992;DHT22;9121;50.926;5.340;2023-06-26T01:46:59;24.40;99.90
17992;DHT22;9121;50.926;5.340;2023-06-26T01:49:35;24.30;99.90
17992;DHT22;9121;50.926;5.340;2023-06-26T01:52:09;24.30;99.90
17992;DHT22;9121;50.926;5.340;2023-06-26T01:54:47;24.30;99.90
17992;DHT22;9121;50.926;5.340;2023-06-26T01:57:17;24.30;99.90
17992;DHT22;9121;50.926;5.340;2023-06-26T01:59:47;24.20;99.90
17992;DHT22;9121;50.926;5.340;2023-06-26T02:02:15;24.20;99.90
17992;DHT22;9121;50.926;5.340;2023-06-26T02:04:41;24.10;99.90
17992;DHT22;9121;50.926;5.340;2023-06-26T02:07:08;23.90;99.90
17992;DHT22;9121;50.926;5.340;2023-06-26T02:09:36;23.90;99.90
17992;DHT22;9121;50.926;5.340;2023-06-26T02:12:03;23.70;99.90
17992;DHT22;9121;50.926;5.340;2023-06-26T02:14:30;23.70;99.90
17992;DHT22;9121;50.926;5.340;2023-06-26T02:16:59;23.60;99.90
17992;DHT22;9121;50.926;5.340;2023-06-26T02:19:26;23.60;99.90
17992;DHT22;9121;50.926;5.340;2023-06-26T02:21:54;23.50;99.90
17992;DHT22;9121;50.926;5.340;2023-06-26T02:24:21;23.60;99.90
17992;DHT22;9121;50.926;5.340;2023-06-26T02:26:48;23.40;99.90
17992;DHT22;9121;50.926;5.340;2023-06-26T02:29:15;23.40;99.90
17992;DHT22;9121;50.926;5.340;2023-06-26T02:31:42;23.50;99.90
17992;DHT22;9121;50.926;5.340;2023-06-26T02:34:11;23.50;99.90
17992;DHT22;9121;50.926;5.340;2023-06-26T02:36:38;23.40;99.90
17992;DHT22;9121;50.926;5.340;2023-06-26T02:39:05;23.30;99.90
17992;DHT22;9121;50.926;5.340;2023-06-26T02:41:32;23.30;99.90
17992;DHT22;9121;50.926;5.340;2023-06-26T02:43:59;23.30;99.90
17992;DHT22;9121;50.926;5.340;2023-06-26T02:46:26;23.30;99.90
17992;DHT22;9121;50.926;5.340;2023-06-26T02:48:53;23.20;99.90
17992;DHT22;9121;50.926;5.340;2023-06-26T02:51:21;23.20;99.90
17992;DHT22;9121;50.926;5.340;2023-06-26T02:53:48;23.30;99.90
17992;DHT22;9121;50.926;5.340;2023-06-26T02:56:15;23.20;99.90
17992;DHT22;9121;50.926;5.340;2023-06-26T02:58:42;23.10;99.90
17992;DHT22;9121;50.926;5.340;2023-06-26T03:01:09;23.10;99.90
17992;DHT22;9121;50.926;5.340;2023-06-26T03:03:36;23.10;99.90
17992;DHT22;9121;50.926;5.340;2023-06-26T03:06:06;23.10;99.90
17992;DHT22;9121;50.926;5.340;2023-06-26T03:08:36;23.00;99.90
17992;DHT22;9121;50.926;5.340;2023-06-26T03:11:04;23.00;99.90
17992;DHT22;9121;50.926;5.340;2023-06-26T03:13:32;23.00;99.90
17992;DHT22;9121;50.926;5.340;2023-06-26T03:16:01;22.90;99.90
17992;DHT22;9121;50.926;5.340;2023-06-26T03:18:28;22.90;99.90
17992;DHT22;9121;50.926;5.340;2023-06-26T03:20:56;22.80;99.90
17992;DHT22;9121;50.926;5.340;2023-06-26T03:23:23;22.70;99.90
17992;DHT22;9121;50.926;5.340;2023-06-26T03:25:52;22.70;99.90
17992;DHT22;9121;50.926;5.340;2023-06-26T03:28:19;22.60;99.90
17992;DHT22;9121;50.926;5.340;2023-06-26T03:30:46;22.70;99.90
17992;DHT22;9121;50.926;5.340;2023-06-26T03:33:13;22.50;99.90
17992;DHT22;9121;50.926;5.340;2023-06-26T03:35:41;22.50;99.90
17992;DHT22;9121;50.926;5.340;2023-06-26T03:38:07;22.40;99.90
17992;DHT22;9121;50.926;5.340;2023-06-26T03:40:34;22.30;99.90
17992;DHT22;9121;50.926;5.340;2023-06-26T03:43:03;22.30;99.90
17992;DHT22;9121;50.926;5.340;2023-06-26T03:45:29;22.10;99.90
17992;DHT22;9121;50.926;5.340;2023-06-26T03:47:56;22.10;99.90
17992;DHT22;9121;50.926;5.340;2023-06-26T03:50:23;22.00;99.90
17992;DHT22;9121;50.926;5.340;2023-06-26T03:52:50;22.10;99.90
17992;DHT22;9121;50.926;5.340;2023-06-26T03:55:21;22.20;99.90
17992;DHT22;9121;50.926;5.340;2023-06-26T03:57:49;22.20;99.90
17992;DHT22;9121;50.926;5.340;2023-06-26T04:00:17;22.10;99.90
17992;DHT22;9121;50.926;5.340;2023-06-26T04:02:44;22.10;99.90
17992;DHT22;9121;50.926;5.340;2023-06-26T04:05:11;22.00;99.90
17992;DHT22;9121;50.926;5.340;2023-06-26T04:07:38;22.00;99.90
17992;DHT22;9121;50.926;5.340;2023-06-26T04:10:06;22.00;99.90
17992;DHT22;9121;50.926;5.340;2023-06-26T04:12:33;22.00;99.90
17992;DHT22;9121;50.926;5.340;2023-06-26T04:15:00;22.00;99.90
17992;DHT22;9121;50.926;5.340;2023-06-26T04:17:29;22.00;99.90
17992;DHT22;9121;50.926;5.340;2023-06-26T04:19:56;21.90;99.90
17992;DHT22;9121;50.926;5.340;2023-06-26T04:22:23;21.90;99.90
17992;DHT22;9121;50.926;5.340;2023-06-26T04:24:51;21.80;99.90
17992;DHT22;9121;50.926;5.340;2023-06-26T04:27:18;21.80;99.90
17992;DHT22;9121;50.926;5.340;2023-06-26T04:29:45;21.80;99.90
17992;DHT22;9121;50.926;5.340;2023-06-26T04:32:12;21.90;99.90
17992;DHT22;9121;50.926;5.340;2023-06-26T04:34:40;22.00;99.90
17992;DHT22;9121;50.926;5.340;2023-06-26T04:37:09;22.00;99.90
17992;DHT22;9121;50.926;5.340;2023-06-26T04:39:36;22.00;99.90
17992;DHT22;9121;50.926;5.340;2023-06-26T04:42:04;21.90;99.90
17992;DHT22;9121;50.926;5.340;2023-06-26T04:44:32;21.90;99.90
17992;DHT22;9121;50.926;5.340;2023-06-26T04:46:59;21.90;99.90
17992;DHT22;9121;50.926;5.340;2023-06-26T04:49:26;21.90;99.90
17992;DHT22;9121;50.926;5.340;2023-06-26T04:51:56;21.80;99.90
17992;DHT22;9121;50.926;5.340;2023-06-26T04:54:26;21.80;99.90
17992;DHT22;9121;50.926;5.340;2023-06-26T04:56:53;21.90;99.90
17992;DHT22;9121;50.926;5.340;2023-06-26T04:59:21;21.80;99.90
17992;DHT22;9121;50.926;5.340;2023-06-26T05:01:48;21.70;99.90
17992;DHT22;9121;50.926;5.340;2023-06-26T05:04:15;21.70;99.90
17992;DHT22;9121;50.926;5.340;2023-06-26T05:06:42;21.80;99.90
17992;DHT22;9121;50.926;5.340;2023-06-26T05:09:10;21.80;99.90
17992;DHT22;9121;50.926;5.340;2023-06-26T05:11:37;21.80;99.90
17992;DHT22;9121;50.926;5.340;2023-06-26T05:14:04;21.80;99.90
17992;DHT22;9121;50.926;5.340;2023-06-26T05:16:33;21.90;99.90
17992;DHT22;9121;50.926;5.340;2023-06-26T05:19:00;22.00;99.90
17992;DHT22;9121;50.926;5.340;2023-06-26T05:21:28;22.00;99.90
17992;DHT22;9121;50.926;5.340;2023-06-26T05:23:56;21.90;99.90
17992;DHT22;9121;50.926;5.340;2023-06-26T05:26:27;21.80;99.90
17992;DHT22;9121;50.926;5.340;2023-06-26T05:28:54;21.80;99.90
17992;DHT22;9121;50.926;5.340;2023-06-26T05:31:22;21.90;99.90
17992;DHT22;9121;50.926;5.340;2023-06-26T05:33:49;21.80;99.90
17992;DHT22;9121;50.926;5.340;2023-06-26T05:36:18;21.80;99.90
17992;DHT22;9121;50.926;5.340;2023-06-26T05:38:47;21.60;99.90
17992;DHT22;9121;50.926;5.340;2023-06-26T05:41:16;21.70;99.90
17992;DHT22;9121;50.926;5.340;2023-06-26T05:43:44;21.70;99.90
17992;DHT22;9121;50.926;5.340;2023-06-26T05:46:11;21.90;99.90
17992;DHT22;9121;50.926;5.340;2023-06-26T05:48:38;22.10;99.90
17992;DHT22;9121;50.926;5.340;2023-06-26T05:51:07;22.10;99.90
17992;DHT22;9121;50.926;5.340;2023-06-26T05:53:34;22.20;99.90
17992;DHT22;9121;50.926;5.340;2023-06-26T05:56:01;22.00;99.90
17992;DHT22;9121;50.926;5.340;2023-06-26T05:58:29;21.90;99.90
17992;DHT22;9121;50.926;5.340;2023-06-26T06:00:58;21.70;99.90
17992;DHT22;9121;50.926;5.340;2023-06-26T06:03:25;21.60;99.90
17992;DHT22;9121;50.926;5.340;2023-06-26T06:05:52;21.60;99.90
17992;DHT22;9121;50.926;5.340;2023-06-26T06:08:19;21.60;99.90
17992;DHT22;9121;50.926;5.340;2023-06-26T06:10:45;21.70;99.90
17992;DHT22;9121;50.926;5.340;2023-06-26T06:13:12;21.60;99.90
17992;DHT22;9121;50.926;5.340;2023-06-26T06:15:39;21.60;99.90
17992;DHT22;9121;50.926;5.340;2023-06-26T06:18:08;21.70;99.90
17992;DHT22;9121;50.926;5.340;2023-06-26T06:20:35;21.60;99.90
17992;DHT22;9121;50.926;5.340;2023-06-26T06:23:02;21.80;99.90
17992;DHT22;9121;50.926;5.340;2023-06-26T06:25:29;21.90;99.90
17992;DHT22;9121;50.926;5.340;2023-06-26T06:27:56;21.90;99.90
17992;DHT22;9121;50.926;5.340;2023-06-26T06:30:23;21.90;99.90
17992;DHT22;9121;50.926;5.340;2023-06-26T06:32:50;21.80;99.90
17992;DHT22;9121;50.926;5.340;2023-06-26T06:35:19;21.60;99.90
17992;DHT22;9121;50.926;5.340;2023-06-26T06:37:46;21.80;99.90
17992;DHT22;9121;50.926;5.340;2023-06-26T06:40:15;22.00;99.90
17992;DHT22;9121;50.926;5.340;2023-06-26T06:42:42;22.20;99.90
17992;DHT22;9121;50.926;5.340;2023-06-26T06:45:09;22.30;99.90
17992;DHT22;9121;50.926;5.340;2023-06-26T06:47:36;22.20;99.90
17992;DHT22;9121;50.926;5.340;2023-06-26T06:50:04;22.20;99.90
17992;DHT22;9121;50.926;5.340;2023-06-26T06:52:36;22.00;99.90
17992;DHT22;9121;50.926;5.340;2023-06-26T06:55:04;22.00;99.90
17992;DHT22;9121;50.926;5.340;2023-06-26T06:57:32;21.90;99.90
17992;DHT22;9121;50.926;5.340;2023-06-26T07:00:02;22.00;99.90
17992;DHT22;9121;50.926;5.340;2023-06-26T07:02:30;22.20;99.90
17992;DHT22;9121;50.926;5.340;2023-06-26T07:04:57;22.20;99.90
17992;DHT22;9121;50.926;5.340;2023-06-26T07:07:28;22.20;99.90
17992;DHT22;9121;50.926;5.340;2023-06-26T07:09:58;22.20;99.90
17992;DHT22;9121;50.926;5.340;2023-06-26T07:12:25;22.30;99.90
17992;DHT22;9121;50.926;5.340;2023-06-26T07:14:52;22.40;99.90
17992;DHT22;9121;50.926;5.340;2023-06-26T07:17:19;22.50;99.90
17992;DHT22;9121;50.926;5.340;2023-06-26T07:19:46;22.60;99.90
17992;DHT22;9121;50.926;5.340;2023-06-26T07:22:13;22.60;99.90
17992;DHT22;9121;50.926;5.340;2023-06-26T07:24:40;22.60;99.90
17992;DHT22;9121;50.926;5.340;2023-06-26T07:27:09;22.90;99.90
17992;DHT22;9121;50.926;5.340;2023-06-26T07:29:36;23.30;99.90
17992;DHT22;9121;50.926;5.340;2023-06-26T07:32:03;23.30;99.90
17992;DHT22;9121;50.926;5.340;2023-06-26T07:34:30;23.30;99.90
17992;DHT22;9121;50.926;5.340;2023-06-26T07:36:57;23.40;99.90
17992;DHT22;9121;50.926;5.340;2023-06-26T07:39:24;23.50;99.90
17992;DHT22;9121;50.926;5.340;2023-06-26T07:41:51;23.20;99.90
17992;DHT22;9121;50.926;5.340;2023-06-26T07:44:19;23.00;99.90
17992;DHT22;9121;50.926;5.340;2023-06-26T07:46:46;23.00;99.90
17992;DHT22;9121;50.926;5.340;2023-06-26T07:49:14;23.00;99.90
17992;DHT22;9121;50.926;5.340;2023-06-26T07:51:40;23.10;99.90
17992;DHT22;9121;50.926;5.340;2023-06-26T07:54:07;23.30;99.90
17992;DHT22;9121;50.926;5.340;2023-06-26T07:56:51;23.40;99.90
17992;DHT22;9121;50.926;5.340;2023-06-26T07:59:20;23.40;99.90
17992;DHT22;9121;50.926;5.340;2023-06-26T08:01:48;23.50;99.90
17992;DHT22;9121;50.926;5.340;2023-06-26T08:04:15;23.50;99.90
17992;DHT22;9121;50.926;5.340;2023-06-26T08:06:42;23.60;99.90
17992;DHT22;9121;50.926;5.340;2023-06-26T08:09:09;23.70;99.90
17992;DHT22;9121;50.926;5.340;2023-06-26T08:11:38;23.70;99.90
17992;DHT22;9121;50.926;5.340;2023-06-26T08:14:05;23.70;99.90
17992;DHT22;9121;50.926;5.340;2023-06-26T08:16:33;23.60;99.90
17992;DHT22;9121;50.926;5.340;2023-06-26T08:19:00;23.70;99.90
17992;DHT22;9121;50.926;5.340;2023-06-26T08:21:27;23.70;99.90
17992;DHT22;9121;50.926;5.340;2023-06-26T08:23:54;23.70;99.90
17992;DHT22;9121;50.926;5.340;2023-06-26T08:26:21;23.70;99.90
17992;DHT22;9121;50.926;5.340;2023-06-26T08:28:48;23.80;99.90
17992;DHT22;9121;50.926;5.340;2023-06-26T08:31:16;24.00;99.90
17992;DHT22;9121;50.926;5.340;2023-06-26T08:33:44;24.10;99.90
17992;DHT22;9121;50.926;5.340;2023-06-26T08:36:11;24.30;99.90
17992;DHT22;9121;50.926;5.340;2023-06-26T08:38:39;24.30;99.90
17992;DHT22;9121;50.926;5.340;2023-06-26T08:41:06;24.20;99.90
17992;DHT22;9121;50.926;5.340;2023-06-26T08:43:34;24.10;99.90
17992;DHT22;9121;50.926;5.340;2023-06-26T08:46:01;24.20;99.90
17992;DHT22;9121;50.926;5.340;2023-06-26T08:48:31;24.20;99.90
17992;DHT22;9121;50.926;5.340;2023-06-26T08:51:02;24.30;99.90
17992;DHT22;9121;50.926;5.340;2023-06-26T08:53:39;24.50;99.90
17992;DHT22;9121;50.926;5.340;2023-06-26T08:56:07;24.40;99.90
17992;DHT22;9121;50.926;5.340;2023-06-26T08:58:35;24.40;99.90
17992;DHT22;9121;50.926;5.340;2023-06-26T09:01:04;24.20;99.90
17992;DHT22;9121;50.926;5.340;2023-06-26T09:03:31;24.30;99.90
17992;DHT22;9121;50.926;5.340;2023-06-26T09:05:58;24.30;99.90
17992;DHT22;9121;50.926;5.340;2023-06-26T09:08:27;24.10;99.90
17992;DHT22;9121;50.926;5.340;2023-06-26T09:10:54;24.10;99.90
17992;DHT22;9121;50.926;5.340;2023-06-26T09:13:21;24.10;99.90
17992;DHT22;9121;50.926;5.340;2023-06-26T09:15:48;23.90;99.90
17992;DHT22;9121;50.926;5.340;2023-06-26T09:18:17;23.90;99.90
17992;DHT22;9121;50.926;5.340;2023-06-26T09:20:44;24.20;99.90
17992;DHT22;9121;50.926;5.340;2023-06-26T09:23:12;24.50;99.90
17992;DHT22;9121;50.926;5.340;2023-06-26T09:25:41;24.50;99.90
17992;DHT22;9121;50.926;5.340;2023-06-26T09:28:09;24.70;99.90
17992;DHT22;9121;50.926;5.340;2023-06-26T09:30:36;24.50;99.90
17992;DHT22;9121;50.926;5.340;2023-06-26T09:33:14;24.30;99.90
17992;DHT22;9121;50.926;5.340;2023-06-26T09:35:41;24.30;99.90
17992;DHT22;9121;50.926;5.340;2023-06-26T09:38:08;24.50;99.90
17992;DHT22;9121;50.926;5.340;2023-06-26T09:40:35;24.60;99.90
17992;DHT22;9121;50.926;5.340;2023-06-26T09:43:05;24.70;99.90
17992;DHT22;9121;50.926;5.340;2023-06-26T09:45:33;24.50;99.90
17992;DHT22;9121;50.926;5.340;2023-06-26T09:48:01;24.60;99.90
17992;DHT22;9121;50.926;5.340;2023-06-26T09:50:30;24.70;99.90
17992;DHT22;9121;50.926;5.340;2023-06-26T09:53:07;24.80;99.90
17992;DHT22;9121;50.926;5.340;2023-06-26T09:55:34;24.80;99.90
17992;DHT22;9121;50.926;5.340;2023-06-26T09:58:02;24.90;99.90
17992;DHT22;9121;50.926;5.340;2023-06-26T10:00:31;24.90;99.90
17992;DHT22;9121;50.926;5.340;2023-06-26T10:02:58;24.90;99.90
17992;DHT22;9121;50.926;5.340;2023-06-26T10:05:25;24.80;99.90
17992;DHT22;9121;50.926;5.340;2023-06-26T10:07:53;24.70;99.90
17992;DHT22;9121;50.926;5.340;2023-06-26T10:10:21;24.60;99.90
17992;DHT22;9121;50.926;5.340;2023-06-26T10:12:51;24.80;99.90
17992;DHT22;9121;50.926;5.340;2023-06-26T10:15:21;24.80;99.90
17992;DHT22;9121;50.926;5.340;2023-06-26T10:17:52;25.00;99.90
17992;DHT22;9121;50.926;5.340;2023-06-26T10:20:23;25.00;99.90
17992;DHT22;9121;50.926;5.340;2023-06-26T10:22:51;25.00;99.90
17992;DHT22;9121;50.926;5.340;2023-06-26T10:25:20;25.00;99.90
17992;DHT22;9121;50.926;5.340;2023-06-26T10:27:52;25.10;99.90
17992;DHT22;9121;50.926;5.340;2023-06-26T10:30:23;25.00;99.90
17992;DHT22;9121;50.926;5.340;2023-06-26T10:32:54;24.90;99.90
17992;DHT22;9121;50.926;5.340;2023-06-26T10:35:21;24.90;99.90
17992;DHT22;9121;50.926;5.340;2023-06-26T10:37:49;24.80;99.90
17992;DHT22;9121;50.926;5.340;2023-06-26T10:40:22;24.80;99.90
17992;DHT22;9121;50.926;5.340;2023-06-26T10:42:49;24.70;99.90
17992;DHT22;9121;50.926;5.340;2023-06-26T10:45:20;24.90;99.90
17992;DHT22;9121;50.926;5.340;2023-06-26T10:47:48;25.10;99.90
17992;DHT22;9121;50.926;5.340;2023-06-26T10:50:22;25.20;99.90
17992;DHT22;9121;50.926;5.340;2023-06-26T10:53:13;25.40;99.90
17992;DHT22;9121;50.926;5.340;2023-06-26T10:55:48;25.10;99.90
17992;DHT22;9121;50.926;5.340;2023-06-26T10:58:39;25.30;99.90
17992;DHT22;9121;50.926;5.340;2023-06-26T11:01:21;25.20;99.90
17992;DHT22;9121;50.926;5.340;2023-06-26T11:04:00;25.10;99.50
17992;DHT22;9121;50.926;5.340;2023-06-26T11:06:30;25.30;99.50
17992;DHT22;9121;50.926;5.340;2023-06-26T11:09:00;25.70;98.90
17992;DHT22;9121;50.926;5.340;2023-06-26T11:11:57;26.10;97.90
17992;DHT22;9121;50.926;5.340;2023-06-26T11:14:28;26.30;97.10
17992;DHT22;9121;50.926;5.340;2023-06-26T11:16:58;26.20;97.10
17992;DHT22;9121;50.926;5.340;2023-06-26T11:19:26;26.10;97.40
17992;DHT22;9121;50.926;5.340;2023-06-26T11:22:04;26.00;97.80
17992;DHT22;9121;50.926;5.340;2023-06-26T11:24:31;26.00;98.20
17992;DHT22;9121;50.926;5.340;2023-06-26T11:27:03;26.20;97.20
17992;DHT22;9121;50.926;5.340;2023-06-26T11:29:31;26.00;97.60
17992;DHT22;9121;50.926;5.340;2023-06-26T11:32:03;25.80;96.80
17992;DHT22;9121;50.926;5.340;2023-06-26T11:34:32;25.90;96.90
17992;DHT22;9121;50.926;5.340;2023-06-26T11:36:59;25.60;96.70
17992;DHT22;9121;50.926;5.340;2023-06-26T11:39:30;25.60;97.60
17992;DHT22;9121;50.926;5.340;2023-06-26T11:41:59;25.80;96.40
17992;DHT22;9121;50.926;5.340;2023-06-26T11:44:29;26.00;95.20
17992;DHT22;9121;50.926;5.340;2023-06-26T11:46:56;26.10;94.70
17992;DHT22;9121;50.926;5.340;2023-06-26T11:49:24;26.30;95.00
17992;DHT22;9121;50.926;5.340;2023-06-26T11:51:53;26.50;95.00
17992;DHT22;9121;50.926;5.340;2023-06-26T11:54:27;26.60;94.70
17992;DHT22;9121;50.926;5.340;2023-06-26T11:56:59;26.70;95.10
17992;DHT22;9121;50.926;5.340;2023-06-26T11:59:37;27.00;94.90
17992;DHT22;9121;50.926;5.340;2023-06-26T12:02:06;27.00;94.20
17992;DHT22;9121;50.926;5.340;2023-06-26T12:04:34;27.00;94.10
17992;DHT22;9121;50.926;5.340;2023-06-26T12:07:02;27.10;94.50
17992;DHT22;9121;50.926;5.340;2023-06-26T12:09:33;27.40;93.70
17992;DHT22;9121;50.926;5.340;2023-06-26T12:12:02;27.40;93.20
17992;DHT22;9121;50.926;5.340;2023-06-26T12:14:29;27.30;93.10
17992;DHT22;9121;50.926;5.340;2023-06-26T12:17:04;27.20;93.30
17992;DHT22;9121;50.926;5.340;2023-06-26T12:19:31;27.40;92.70
17992;DHT22;9121;50.926;5.340;2023-06-26T12:21:58;27.90;91.40
17992;DHT22;9121;50.926;5.340;2023-06-26T12:24:25;28.10;91.60
17992;DHT22;9121;50.926;5.340;2023-06-26T12:26:53;28.10;91.60
17992;DHT22;9121;50.926;5.340;2023-06-26T12:29:32;27.70;92.00
17992;DHT22;9121;50.926;5.340;2023-06-26T12:32:00;27.80;91.40
17992;DHT22;9121;50.926;5.340;2023-06-26T12:34:28;28.30;91.20
17992;DHT22;9121;50.926;5.340;2023-06-26T12:37:02;29.10;90.30
17992;DHT22;9121;50.926;5.340;2023-06-26T12:39:30;29.60;87.50
17992;DHT22;9121;50.926;5.340;2023-06-26T12:42:13;28.90;87.90
17992;DHT22;9121;50.926;5.340;2023-06-26T12:44:42;27.80;89.60
17992;DHT22;9121;50.926;5.340;2023-06-26T12:47:09;27.40;89.80
17992;DHT22;9121;50.926;5.340;2023-06-26T12:49:40;27.80;90.00
17992;DHT22;9121;50.926;5.340;2023-06-26T12:52:09;28.40;89.10
17992;DHT22;9121;50.926;5.340;2023-06-26T12:54:39;28.80;88.40
17992;DHT22;9121;50.926;5.340;2023-06-26T12:57:06;28.40;87.60
17992;DHT22;9121;50.926;5.340;2023-06-26T12:59:34;28.50;87.80
17992;DHT22;9121;50.926;5.340;2023-06-26T13:02:03;28.80;87.00
17992;DHT22;9121;50.926;5.340;2023-06-26T13:04:30;28.80;85.70
17992;DHT22;9121;50.926;5.340;2023-06-26T13:06:57;28.90;86.70
17992;DHT22;9121;50.926;5.340;2023-06-26T13:09:25;28.80;86.90
17992;DHT22;9121;50.926;5.340;2023-06-26T13:11:52;28.80;86.40
17992;DHT22;9121;50.926;5.340;2023-06-26T13:14:19;28.30;86.60
17992;DHT22;9121;50.926;5.340;2023-06-26T13:16:47;28.30;86.60
17992;DHT22;9121;50.926;5.340;2023-06-26T13:19:15;28.40;87.10
17992;DHT22;9121;50.926;5.340;2023-06-26T13:21:42;28.60;84.60
17992;DHT22;9121;50.926;5.340;2023-06-26T13:24:10;28.40;85.40
17992;DHT22;9121;50.926;5.340;2023-06-26T13:26:37;28.10;84.30
17992;DHT22;9121;50.926;5.340;2023-06-26T13:29:04;28.20;84.10
17992;DHT22;9121;50.926;5.340;2023-06-26T13:31:31;28.50;84.00
17992;DHT22;9121;50.926;5.340;2023-06-26T13:33:59;28.90;83.40
17992;DHT22;9121;50.926;5.340;2023-06-26T13:36:27;29.20;81.10
17992;DHT22;9121;50.926;5.340;2023-06-26T13:38:54;28.80;81.60
17992;DHT22;9121;50.926;5.340;2023-06-26T13:41:22;28.40;83.70
17992;DHT22;9121;50.926;5.340;2023-06-26T13:43:49;28.40;83.50
17992;DHT22;9121;50.926;5.340;2023-06-26T13:46:16;28.60;82.10
17992;DHT22;9121;50.926;5.340;2023-06-26T13:48:43;28.70;80.70
17992;DHT22;9121;50.926;5.340;2023-06-26T13:51:11;28.80;80.80
17992;DHT22;9121;50.926;5.340;2023-06-26T13:53:39;28.50;80.30
17992;DHT22;9121;50.926;5.340;2023-06-26T13:56:06;28.70;79.70
17992;DHT22;9121;50.926;5.340;2023-06-26T13:58:40;29.00;77.60
17992;DHT22;9121;50.926;5.340;2023-06-26T14:01:07;29.60;78.00
17992;DHT22;9121;50.926;5.340;2023-06-26T14:03:34;29.60;77.60
17992;DHT22;9121;50.926;5.340;2023-06-26T14:06:01;29.60;78.10
17992;DHT22;9121;50.926;5.340;2023-06-26T14:08:28;29.90;77.10
17992;DHT22;9121;50.926;5.340;2023-06-26T14:10:56;30.70;76.90
17992;DHT22;9121;50.926;5.340;2023-06-26T14:13:23;30.20;76.20
17992;DHT22;9121;50.926;5.340;2023-06-26T14:15:50;29.70;76.90
17992;DHT22;9121;50.926;5.340;2023-06-26T14:18:18;28.90;78.70
17992;DHT22;9121;50.926;5.340;2023-06-26T14:20:46;28.80;79.50
17992;DHT22;9121;50.926;5.340;2023-06-26T14:23:13;28.60;79.20
17992;DHT22;9121;50.926;5.340;2023-06-26T14:25:40;28.20;79.60
17992;DHT22;9121;50.926;5.340;2023-06-26T14:28:08;28.00;79.90
17992;DHT22;9121;50.926;5.340;2023-06-26T14:30:35;28.80;79.30
17992;DHT22;9121;50.926;5.340;2023-06-26T14:33:02;29.50;78.70
17992;DHT22;9121;50.926;5.340;2023-06-26T14:35:29;29.30;77.00
17992;DHT22;9121;50.926;5.340;2023-06-26T14:37:56;28.80;77.30
17992;DHT22;9121;50.926;5.340;2023-06-26T14:40:23;28.50;78.50
17992;DHT22;9121;50.926;5.340;2023-06-26T14:42:50;28.70;78.80
17992;DHT22;9121;50.926;5.340;2023-06-26T14:45:20;28.70;76.90
17992;DHT22;9121;50.926;5.340;2023-06-26T14:47:47;28.60;77.50
17992;DHT22;9121;50.926;5.340;2023-06-26T14:50:14;28.60;76.90
17992;DHT22;9121;50.926;5.340;2023-06-26T14:52:41;28.60;76.70
17992;DHT22;9121;50.926;5.340;2023-06-26T14:55:08;28.50;77.00
17992;DHT22;9121;50.926;5.340;2023-06-26T14:57:36;28.50;76.20
17992;DHT22;9121;50.926;5.340;2023-06-26T15:00:03;28.40;76.90
17992;DHT22;9121;50.926;5.340;2023-06-26T15:02:32;28.30;76.70
17992;DHT22;9121;50.926;5.340;2023-06-26T15:04:59;28.50;76.50
17992;DHT22;9121;50.926;5.340;2023-06-26T15:07:32;28.50;76.80
17992;DHT22;9121;50.926;5.340;2023-06-26T15:09:59;28.90;76.60
17992;DHT22;9121;50.926;5.340;2023-06-26T15:12:27;29.00;76.10
17992;DHT22;9121;50.926;5.340;2023-06-26T15:14:54;28.80;76.50
17992;DHT22;9121;50.926;5.340;2023-06-26T15:17:21;28.40;76.90
17992;DHT22;9121;50.926;5.340;2023-06-26T15:19:49;28.50;77.60
17992;DHT22;9121;50.926;5.340;2023-06-26T15:22:17;28.80;77.50
17992;DHT22;9121;50.926;5.340;2023-06-26T15:24:44;29.50;75.70
17992;DHT22;9121;50.926;5.340;2023-06-26T15:27:11;29.80;76.20
17992;DHT22;9121;50.926;5.340;2023-06-26T15:29:38;30.20;74.80
17992;DHT22;9121;50.926;5.340;2023-06-26T15:32:06;30.30;74.40
17992;DHT22;9121;50.926;5.340;2023-06-26T15:34:33;30.60;74.60
17992;DHT22;9121;50.926;5.340;2023-06-26T15:37:02;30.50;74.00
17992;DHT22;9121;50.926;5.340;2023-06-26T15:39:29;30.70;74.70
17992;DHT22;9121;50.926;5.340;2023-06-26T15:41:56;31.00;74.00
17992;DHT22;9121;50.926;5.340;2023-06-26T15:44:23;30.90;72.00
17992;DHT22;9121;50.926;5.340;2023-06-26T15:46:50;30.60;70.90
17992;DHT22;9121;50.926;5.340;2023-06-26T15:49:17;29.70;72.60
17992;DHT22;9121;50.926;5.340;2023-06-26T15:51:44;28.90;73.50